createdAt,value
2023-01-21T00:00:26.145Z,48.34
2023-01-21T00:01:26.123Z,47.53
2023-01-21T00:02:26.202Z,53.33
2023-01-21T00:03:26.168Z,59.30
2023-01-21T00:04:26.105Z,52.37
2023-01-21T00:05:26.103Z,55.27
2023-01-21T00:06:26.095Z,48.50
2023-01-21T00:07:26.102Z,51.72
2023-01-21T00:08:26.104Z,48.50
2023-01-21T00:09:26.067Z,47.70
2023-01-21T00:10:26.069Z,57.52
2023-01-21T00:11:26.057Z,57.04
2023-01-21T00:12:26.049Z,46.25
2023-01-21T00:13:26.042Z,44.79
2023-01-21T00:14:26.066Z,48.82
2023-01-21T00:15:26.185Z,51.88
2023-01-21T00:16:26.023Z,50.11
2023-01-21T00:17:26.010Z,49.47
2023-01-21T00:18:26.004Z,48.50
2023-01-21T00:19:26.024Z,46.57
2023-01-21T00:20:25.992Z,50.11
2023-01-21T00:21:25.996Z,54.46
2023-01-21T00:22:25.979Z,48.18
2023-01-21T00:23:25.966Z,50.76
2023-01-21T00:24:25.986Z,50.60
2023-01-21T00:25:25.945Z,47.70
2023-01-21T00:26:25.964Z,57.20
2023-01-21T00:27:25.943Z,47.70
2023-01-21T00:28:25.928Z,47.70
2023-01-21T00:29:25.947Z,57.20
2023-01-21T00:30:25.919Z,46.57
2023-01-21T00:31:25.991Z,48.50
2023-01-21T00:32:25.902Z,47.05
2023-01-21T00:33:25.885Z,50.76
2023-01-21T00:34:25.920Z,59.30
2023-01-21T00:35:25.874Z,46.73
2023-01-21T00:36:25.864Z,50.11
2023-01-21T00:37:25.853Z,54.46
2023-01-21T00:38:25.845Z,53.66
2023-01-21T00:39:25.878Z,54.62
2023-01-21T00:40:25.838Z,56.72
2023-01-21T00:41:25.833Z,47.37
2023-01-21T00:42:25.825Z,49.15
2023-01-21T00:43:25.816Z,53.66
2023-01-21T00:44:25.836Z,49.79
2023-01-21T00:45:25.798Z,49.47
2023-01-21T00:46:25.858Z,53.50
2023-01-21T00:47:25.787Z,46.57
2023-01-21T00:48:25.795Z,42.86
2023-01-21T00:49:25.793Z,50.11
2023-01-21T00:50:25.761Z,47.37
2023-01-21T00:51:25.760Z,54.46
2023-01-21T00:52:25.751Z,56.07
2023-01-21T00:53:25.742Z,53.01
2023-01-21T00:54:25.761Z,44.63
2023-01-21T00:55:25.726Z,50.27
2023-01-21T00:56:25.721Z,45.12
2023-01-21T00:57:25.708Z,46.41
2023-01-21T00:58:25.725Z,46.08
2023-01-21T00:59:25.735Z,57.20
2023-01-21T01:00:25.694Z,55.91
2023-01-21T01:01:25.744Z,47.86
2023-01-21T01:02:25.712Z,48.98
2023-01-21T01:03:25.686Z,44.79
2023-01-21T01:04:25.691Z,46.57
2023-01-21T01:05:25.655Z,47.21
2023-01-21T01:06:25.647Z,45.60
2023-01-21T01:07:25.633Z,55.75
2023-01-21T01:08:26.635Z,47.70
2023-01-21T01:09:25.659Z,47.05
2023-01-21T01:10:25.627Z,57.85
2023-01-21T01:11:25.612Z,50.11
2023-01-21T01:12:25.612Z,51.08
2023-01-21T01:13:25.598Z,48.98
2023-01-21T01:14:25.627Z,51.08
2023-01-21T01:15:25.594Z,48.82
2023-01-21T01:16:25.577Z,46.89
2023-01-21T01:17:25.569Z,46.08
2023-01-21T01:18:25.564Z,48.98
2023-01-21T01:19:25.599Z,45.76
2023-01-21T01:20:25.545Z,50.11
2023-01-21T01:21:25.539Z,53.82
2023-01-21T01:22:25.532Z,55.91
2023-01-21T01:23:25.529Z,54.95
2023-01-21T01:24:25.549Z,51.72
2023-01-21T01:25:25.511Z,59.62
2023-01-21T01:26:25.496Z,57.20
2023-01-21T01:27:25.492Z,54.62
2023-01-21T01:28:25.499Z,53.98
2023-01-21T01:29:25.504Z,55.59
2023-01-21T01:30:25.534Z,50.27
2023-01-21T01:31:25.483Z,48.02
2023-01-21T01:32:25.463Z,52.05
2023-01-21T01:33:25.457Z,56.88
2023-01-21T01:34:25.466Z,55.91
2023-01-21T01:35:25.443Z,50.60
2023-01-21T01:36:25.445Z,53.82
2023-01-21T01:37:25.422Z,45.44
2023-01-21T01:38:25.412Z,54.95
2023-01-21T01:39:25.441Z,44.79
2023-01-21T01:40:25.414Z,48.66
2023-01-21T01:41:25.407Z,46.25
2023-01-21T01:42:25.393Z,45.28
2023-01-21T01:43:25.388Z,47.37
2023-01-21T01:44:25.405Z,50.43
2023-01-21T01:45:25.369Z,45.44
2023-01-21T01:46:25.370Z,48.50
2023-01-21T01:47:25.357Z,48.82
2023-01-21T01:48:25.347Z,45.76
2023-01-21T01:49:25.370Z,46.57
2023-01-21T01:50:25.334Z,47.05
2023-01-21T01:51:25.332Z,43.34
2023-01-21T01:52:25.317Z,56.07
2023-01-21T01:53:25.305Z,53.82
2023-01-21T01:54:27.180Z,46.89
2023-01-21T01:55:25.303Z,49.95
2023-01-21T01:56:25.291Z,48.50
2023-01-21T01:57:25.293Z,45.44
2023-01-21T01:58:25.280Z,50.60
2023-01-21T01:59:25.292Z,41.89
2023-01-21T02:00:25.260Z,41.89
2023-01-21T02:01:25.311Z,42.22
2023-01-21T02:02:25.246Z,44.47
2023-01-21T02:03:25.252Z,44.96
2023-01-21T02:04:25.260Z,48.34
2023-01-21T02:05:25.228Z,42.86
2023-01-21T02:06:25.219Z,41.25
2023-01-21T02:07:25.212Z,48.82
2023-01-21T02:08:25.206Z,53.17
2023-01-21T02:09:25.223Z,45.28
2023-01-21T02:10:25.196Z,43.99
2023-01-21T02:11:25.185Z,47.70
2023-01-21T02:12:25.171Z,50.76
2023-01-21T02:13:25.168Z,45.92
2023-01-21T02:14:25.190Z,47.21
2023-01-21T02:15:25.154Z,46.41
2023-01-21T02:16:25.167Z,46.89
2023-01-21T02:17:25.143Z,49.47
2023-01-21T02:18:25.132Z,42.38
2023-01-21T02:19:25.158Z,42.54
2023-01-21T02:20:25.126Z,41.57
2023-01-21T02:21:25.107Z,42.70
2023-01-21T02:22:25.105Z,43.02
2023-01-21T02:23:25.097Z,47.70
2023-01-21T02:24:25.092Z,50.27
2023-01-21T02:25:25.105Z,43.67
2023-01-21T02:26:25.077Z,48.50
2023-01-21T02:27:30.812Z,48.18
2023-01-21T02:28:27.090Z,44.96
2023-01-21T02:29:25.051Z,42.86
2023-01-21T02:30:25.069Z,45.60
2023-01-21T02:31:25.052Z,50.92
2023-01-21T02:32:25.028Z,50.27
2023-01-21T02:33:25.020Z,49.95
2023-01-21T02:34:25.015Z,49.31
2023-01-21T02:35:25.045Z,41.73
2023-01-21T02:36:24.995Z,41.09
2023-01-21T02:37:25.003Z,41.25
2023-01-21T02:38:24.986Z,47.05
2023-01-21T02:39:24.977Z,52.53
2023-01-21T02:40:24.998Z,48.82
2023-01-21T02:41:24.969Z,54.79
2023-01-21T02:42:24.957Z,53.66
2023-01-21T02:43:24.951Z,45.60
2023-01-21T02:44:24.943Z,44.47
2023-01-21T02:45:24.966Z,41.57
2023-01-21T02:46:24.946Z,42.86
2023-01-21T02:47:24.923Z,44.79
2023-01-21T02:48:24.912Z,46.08
2023-01-21T02:49:24.913Z,43.02
2023-01-21T02:50:24.933Z,49.31
2023-01-21T02:51:24.893Z,53.66
2023-01-21T02:52:24.888Z,47.86
2023-01-21T02:53:24.880Z,49.63
2023-01-21T02:54:24.871Z,43.34
2023-01-21T02:55:24.901Z,40.28
2023-01-21T02:56:24.861Z,41.09
2023-01-21T02:57:24.860Z,41.25
2023-01-21T02:58:24.846Z,41.41
2023-01-21T02:59:24.841Z,41.25
2023-01-21T03:00:24.858Z,40.28
2023-01-21T03:01:24.827Z,48.34
2023-01-21T03:02:24.820Z,43.83
2023-01-21T03:03:24.830Z,46.73
2023-01-21T03:04:24.809Z,41.57
2023-01-21T03:05:24.829Z,41.89
2023-01-21T03:06:24.793Z,41.09
2023-01-21T03:07:24.782Z,42.22
2023-01-21T03:08:24.774Z,43.34
2023-01-21T03:09:24.784Z,42.54
2023-01-21T03:10:24.799Z,43.02
2023-01-21T03:11:24.748Z,42.38
2023-01-21T03:12:25.747Z,41.41
2023-01-21T03:13:24.739Z,41.89
2023-01-21T03:14:24.733Z,42.70
2023-01-21T03:15:24.727Z,42.54
2023-01-21T03:16:24.800Z,42.70
2023-01-21T03:17:24.741Z,48.18
2023-01-21T03:18:24.718Z,50.60
2023-01-21T03:19:24.705Z,48.02
2023-01-21T03:20:24.719Z,39.96
2023-01-21T03:21:24.713Z,40.12
2023-01-21T03:22:24.673Z,40.93
2023-01-21T03:23:24.670Z,41.89
2023-01-21T03:24:24.663Z,42.06
2023-01-21T03:25:24.659Z,42.06
2023-01-21T03:26:24.893Z,42.38
2023-01-21T03:27:24.636Z,42.86
2023-01-21T03:28:24.634Z,42.54
2023-01-21T03:29:24.625Z,44.47
2023-01-21T03:30:24.611Z,44.15
2023-01-21T03:31:25.696Z,45.76
2023-01-21T03:32:24.603Z,42.70
2023-01-21T03:33:24.632Z,44.31
2023-01-21T03:34:24.605Z,42.70
2023-01-21T03:35:24.581Z,43.18
2023-01-21T03:36:24.603Z,43.18
2023-01-21T03:37:24.589Z,44.15
2023-01-21T03:38:24.562Z,44.47
2023-01-21T03:39:24.554Z,44.63
2023-01-21T03:40:24.547Z,47.86
2023-01-21T03:41:24.549Z,48.50
2023-01-21T03:42:24.559Z,45.44
2023-01-21T03:43:24.526Z,46.08
2023-01-21T03:44:24.525Z,50.43
2023-01-21T03:45:24.599Z,44.15
2023-01-21T03:46:24.504Z,45.60
2023-01-21T03:47:24.529Z,45.28
2023-01-21T03:48:24.496Z,46.41
2023-01-21T03:49:24.482Z,42.70
2023-01-21T03:50:24.473Z,42.70
2023-01-21T03:51:24.468Z,47.37
2023-01-21T03:52:24.488Z,46.89
2023-01-21T03:53:24.455Z,50.76
2023-01-21T03:54:24.450Z,44.79
2023-01-21T03:55:24.444Z,47.53
2023-01-21T03:56:24.436Z,46.08
2023-01-21T03:57:24.465Z,47.53
2023-01-21T03:58:24.423Z,49.15
2023-01-21T03:59:24.421Z,47.21
2023-01-21T04:00:24.404Z,49.79
2023-01-21T04:01:24.402Z,53.17
2023-01-21T04:02:24.478Z,46.57
2023-01-21T04:03:24.386Z,53.01
2023-01-21T04:04:24.385Z,53.82
2023-01-21T04:05:24.375Z,55.91
2023-01-21T04:06:24.362Z,47.86
2023-01-21T04:07:24.385Z,56.56
2023-01-21T04:08:24.352Z,55.75
2023-01-21T04:09:24.339Z,43.99
2023-01-21T04:10:24.361Z,43.83
2023-01-21T04:11:24.336Z,49.31
2023-01-21T04:12:24.341Z,51.24
2023-01-21T04:13:24.318Z,48.66
2023-01-21T04:14:24.308Z,51.40
2023-01-21T04:15:24.302Z,49.95
2023-01-21T04:16:24.377Z,48.66
2023-01-21T04:17:24.325Z,50.76
2023-01-21T04:18:24.280Z,47.37
2023-01-21T04:19:24.267Z,49.31
2023-01-21T04:20:24.267Z,51.88
2023-01-21T04:21:24.257Z,51.56
2023-01-21T04:22:24.285Z,49.31
2023-01-21T04:23:24.247Z,49.47
2023-01-21T04:24:24.237Z,46.89
2023-01-21T04:25:24.232Z,45.76
2023-01-21T04:26:24.221Z,44.15
2023-01-21T04:27:24.248Z,43.51
2023-01-21T04:28:24.208Z,44.47
2023-01-21T04:29:24.203Z,45.28
2023-01-21T04:30:24.193Z,43.99
2023-01-21T04:31:24.210Z,45.28
2023-01-21T04:32:24.184Z,49.79
2023-01-21T04:33:24.200Z,45.60
2023-01-21T04:34:24.172Z,44.96
2023-01-21T04:35:24.168Z,46.25
2023-01-21T04:36:24.155Z,48.82
2023-01-21T04:37:24.151Z,45.44
2023-01-21T04:38:24.165Z,47.21
2023-01-21T04:39:24.137Z,44.79
2023-01-21T04:40:24.122Z,44.15
2023-01-21T04:41:25.538Z,46.89
2023-01-21T04:42:25.121Z,46.73
2023-01-21T04:43:24.143Z,49.15
2023-01-21T04:44:24.090Z,45.76
2023-01-21T04:45:24.087Z,46.57
2023-01-21T04:46:24.080Z,49.63
2023-01-21T04:47:24.079Z,50.60
2023-01-21T04:48:24.092Z,47.21
2023-01-21T04:49:24.057Z,47.86
2023-01-21T04:50:24.051Z,50.92
2023-01-21T04:51:24.054Z,50.76
2023-01-21T04:52:24.041Z,49.63
2023-01-21T04:53:24.067Z,46.73
2023-01-21T04:54:24.026Z,46.57
2023-01-21T04:55:26.234Z,48.82
2023-01-21T04:56:25.010Z,49.31
2023-01-21T04:57:24.004Z,55.59
2023-01-21T04:58:24.017Z,46.89
2023-01-21T04:59:23.986Z,47.37
2023-01-21T05:00:23.979Z,49.31
2023-01-21T05:01:24.117Z,47.70
2023-01-21T05:02:23.988Z,47.05
2023-01-21T05:03:23.986Z,47.70
2023-01-21T05:04:23.973Z,48.50
2023-01-21T05:05:23.943Z,57.04
2023-01-21T05:06:23.992Z,47.53
2023-01-21T05:07:23.924Z,45.76
2023-01-21T05:08:23.968Z,44.96
2023-01-21T05:09:23.948Z,51.24
2023-01-21T05:10:23.907Z,52.37
2023-01-21T05:11:23.955Z,52.37
2023-01-21T05:12:23.891Z,53.33
2023-01-21T05:13:23.920Z,47.86
2023-01-21T05:14:23.878Z,46.89
2023-01-21T05:15:23.867Z,48.02
2023-01-21T05:16:23.909Z,47.37
2023-01-21T05:17:23.860Z,47.05
2023-01-21T05:18:23.880Z,53.17
2023-01-21T05:19:23.852Z,50.27
2023-01-21T05:20:23.834Z,51.56
2023-01-21T05:21:23.825Z,55.43
2023-01-21T05:22:23.817Z,48.66
2023-01-21T05:23:23.877Z,50.43
2023-01-21T05:24:23.813Z,47.05
2023-01-21T05:25:23.797Z,49.63
2023-01-21T05:26:23.791Z,46.89
2023-01-21T05:27:23.783Z,51.88
2023-01-21T05:28:23.803Z,52.85
2023-01-21T05:29:23.766Z,51.08
2023-01-21T05:30:23.774Z,47.70
2023-01-21T05:31:23.848Z,47.21
2023-01-21T05:32:23.750Z,46.41
2023-01-21T05:33:23.737Z,47.37
2023-01-21T05:34:23.760Z,47.37
2023-01-21T05:35:23.739Z,46.57
2023-01-21T05:36:23.735Z,47.70
2023-01-21T05:37:23.714Z,53.33
2023-01-21T05:38:23.704Z,53.66
2023-01-21T05:39:23.724Z,51.24
2023-01-21T05:40:23.696Z,47.37
2023-01-21T05:41:23.687Z,49.63
2023-01-21T05:42:23.680Z,49.47
2023-01-21T05:43:23.667Z,58.17
2023-01-21T05:44:23.682Z,44.96
2023-01-21T05:45:23.656Z,50.43
2023-01-21T05:46:23.685Z,47.05
2023-01-21T05:47:23.632Z,51.08
2023-01-21T05:48:23.624Z,55.43
2023-01-21T05:49:23.647Z,46.25
2023-01-21T05:50:23.612Z,47.70
2023-01-21T05:51:23.634Z,45.12
2023-01-21T05:52:23.594Z,45.92
2023-01-21T05:53:23.588Z,52.21
2023-01-21T05:54:23.619Z,50.43
2023-01-21T05:55:23.573Z,52.21
2023-01-21T05:56:23.567Z,48.34
2023-01-21T05:57:23.562Z,48.02
2023-01-21T05:58:23.563Z,49.95
2023-01-21T05:59:23.573Z,55.43
2023-01-21T06:00:23.549Z,47.21
2023-01-21T06:01:23.533Z,51.88
2023-01-21T06:02:23.589Z,49.63
2023-01-21T06:03:23.531Z,51.72
2023-01-21T06:04:24.041Z,49.31
2023-01-21T06:05:24.504Z,48.82
2023-01-21T06:06:23.505Z,46.89
2023-01-21T06:07:23.492Z,47.05
2023-01-21T06:08:23.498Z,44.31
2023-01-21T06:09:23.502Z,45.44
2023-01-21T06:10:23.468Z,44.15
2023-01-21T06:11:23.461Z,45.60
2023-01-21T06:12:24.851Z,47.05
2023-01-21T06:13:24.444Z,48.98
2023-01-21T06:14:23.463Z,60.26
2023-01-21T06:15:23.435Z,60.26
2023-01-21T06:16:23.423Z,52.85
2023-01-21T06:17:23.417Z,50.11
2023-01-21T06:18:23.415Z,48.18
2023-01-21T06:19:23.435Z,49.15
2023-01-21T06:20:23.394Z,48.18
2023-01-21T06:21:23.382Z,47.53
2023-01-21T06:22:23.384Z,58.65
2023-01-21T06:23:23.385Z,47.37
2023-01-21T06:24:23.396Z,50.92
2023-01-21T06:25:23.360Z,47.53
2023-01-21T06:26:23.853Z,51.72
2023-01-21T06:27:23.346Z,48.98
2023-01-21T06:28:23.331Z,49.79
2023-01-21T06:29:23.354Z,48.34
2023-01-21T06:30:23.321Z,48.02
2023-01-21T06:31:23.361Z,48.66
2023-01-21T06:32:23.302Z,50.76
2023-01-21T06:33:23.299Z,49.15
2023-01-21T06:34:23.291Z,49.79
2023-01-21T06:35:23.307Z,48.98
2023-01-21T06:36:23.275Z,46.41
2023-01-21T06:37:23.267Z,47.53
2023-01-21T06:38:23.253Z,47.05
2023-01-21T06:39:24.254Z,51.08
2023-01-21T06:40:23.267Z,49.31
2023-01-21T06:41:24.242Z,49.31
2023-01-21T06:42:23.232Z,50.27
2023-01-21T06:43:23.223Z,50.92
2023-01-21T06:44:23.210Z,50.27
2023-01-21T06:45:23.234Z,50.60
2023-01-21T06:46:23.261Z,53.33
2023-01-21T06:47:23.193Z,51.88
2023-01-21T06:48:23.186Z,49.47
2023-01-21T06:49:23.177Z,49.63
2023-01-21T06:50:23.201Z,47.21
2023-01-21T06:51:23.194Z,48.34
2023-01-21T06:52:23.151Z,49.79
2023-01-21T06:53:23.153Z,49.31
2023-01-21T06:54:23.137Z,54.46
2023-01-21T06:55:23.154Z,52.53
2023-01-21T06:56:23.125Z,59.30
2023-01-21T06:57:23.118Z,54.62
2023-01-21T06:58:23.110Z,50.11
2023-01-21T06:59:23.110Z,49.47
2023-01-21T07:00:23.118Z,49.31
2023-01-21T07:01:23.146Z,51.72
2023-01-21T07:02:23.141Z,59.94
2023-01-21T07:03:23.081Z,53.33
2023-01-21T07:04:23.069Z,51.08
2023-01-21T07:05:23.091Z,50.76
2023-01-21T07:06:23.057Z,56.24
2023-01-21T07:07:23.050Z,54.62
2023-01-21T07:08:23.043Z,57.04
2023-01-21T07:09:23.035Z,53.82
2023-01-21T07:10:23.054Z,54.46
2023-01-21T07:11:23.017Z,54.30
2023-01-21T07:12:23.013Z,61.87
2023-01-21T07:13:23.002Z,50.76
2023-01-21T07:14:23.000Z,50.92
2023-01-21T07:15:23.016Z,47.53
2023-01-21T07:16:23.071Z,54.14
2023-01-21T07:17:22.976Z,49.95
2023-01-21T07:18:22.993Z,50.60
2023-01-21T07:19:22.966Z,49.79
2023-01-21T07:20:22.982Z,52.37
2023-01-21T07:21:22.966Z,53.01
2023-01-21T07:22:22.941Z,54.79
2023-01-21T07:23:22.956Z,54.62
2023-01-21T07:24:22.929Z,53.50
2023-01-21T07:25:22.950Z,55.91
2023-01-21T07:26:22.917Z,55.27
2023-01-21T07:27:22.913Z,49.15
2023-01-21T07:28:22.903Z,50.92
2023-01-21T07:29:22.898Z,56.07
2023-01-21T07:30:22.914Z,53.66
2023-01-21T07:31:22.971Z,54.46
2023-01-21T07:32:22.875Z,55.43
2023-01-21T07:33:22.866Z,60.75
2023-01-21T07:34:22.859Z,57.20
2023-01-21T07:35:22.876Z,56.24
2023-01-21T07:36:22.848Z,54.62
2023-01-21T07:37:22.838Z,53.66
2023-01-21T07:38:22.837Z,54.46
2023-01-21T07:39:22.827Z,57.20
2023-01-21T07:40:22.846Z,54.95
2023-01-21T07:41:22.809Z,54.62
2023-01-21T07:42:22.809Z,58.17
2023-01-21T07:43:22.792Z,60.26
2023-01-21T07:44:22.793Z,58.81
2023-01-21T07:45:22.803Z,51.88
2023-01-21T07:46:22.785Z,53.82
2023-01-21T07:47:22.763Z,51.08
2023-01-21T07:48:22.755Z,52.37
2023-01-21T07:49:22.759Z,57.20
2023-01-21T07:50:22.773Z,50.92
2023-01-21T07:51:22.902Z,51.56
2023-01-21T07:52:22.729Z,58.49
2023-01-21T07:53:22.721Z,49.79
2023-01-21T07:54:22.711Z,50.27
2023-01-21T07:55:22.728Z,50.92
2023-01-21T07:56:22.694Z,52.37
2023-01-21T07:57:22.692Z,56.07
2023-01-21T07:58:22.696Z,50.27
2023-01-21T07:59:22.673Z,54.46
2023-01-21T08:00:22.688Z,53.33
2023-01-21T08:01:25.183Z,52.85
2023-01-21T08:02:23.757Z,55.59
2023-01-21T08:03:22.648Z,53.01
2023-01-21T08:04:22.645Z,57.36
2023-01-21T08:05:22.655Z,55.91
2023-01-21T08:06:22.628Z,48.34
2023-01-21T08:07:22.619Z,54.14
2023-01-21T08:08:22.611Z,56.88
2023-01-21T08:09:22.612Z,54.95
2023-01-21T08:10:22.656Z,53.17
2023-01-21T08:11:22.599Z,54.46
2023-01-21T08:12:22.583Z,50.60
2023-01-21T08:13:22.580Z,50.11
2023-01-21T08:14:22.573Z,48.50
2023-01-21T08:15:22.592Z,55.11
2023-01-21T08:16:22.613Z,51.24
2023-01-21T08:17:22.550Z,52.21
2023-01-21T08:18:22.561Z,51.40
2023-01-21T08:19:22.540Z,54.30
2023-01-21T08:20:22.570Z,48.66
2023-01-21T08:21:22.526Z,49.47
2023-01-21T08:22:22.512Z,50.76
2023-01-21T08:23:22.504Z,52.37
2023-01-21T08:24:22.509Z,50.92
2023-01-21T08:25:22.518Z,49.79
2023-01-21T08:26:25.459Z,51.40
2023-01-21T08:27:22.478Z,54.30
2023-01-21T08:28:22.468Z,57.04
2023-01-21T08:29:22.465Z,50.27
2023-01-21T08:30:22.453Z,52.53
2023-01-21T08:31:22.568Z,53.33
2023-01-21T08:32:22.447Z,56.40
2023-01-21T08:33:22.427Z,54.62
2023-01-21T08:34:22.432Z,53.66
2023-01-21T08:35:22.414Z,56.88
2023-01-21T08:36:22.436Z,57.69
2023-01-21T08:37:22.406Z,57.52
2023-01-21T08:38:22.395Z,56.07
2023-01-21T08:39:22.389Z,57.85
2023-01-21T08:40:22.377Z,56.88
2023-01-21T08:41:22.400Z,60.26
2023-01-21T08:42:22.365Z,56.40
2023-01-21T08:43:22.359Z,58.97
2023-01-21T08:44:22.354Z,56.72
2023-01-21T08:45:22.345Z,62.36
2023-01-21T08:46:22.371Z,61.23
2023-01-21T08:47:22.341Z,58.33
2023-01-21T08:48:22.330Z,59.94
2023-01-21T08:49:22.321Z,55.75
2023-01-21T08:50:22.302Z,59.62
2023-01-21T08:51:22.362Z,59.78
2023-01-21T08:52:22.300Z,60.75
2023-01-21T08:53:22.306Z,59.14
2023-01-21T08:54:22.283Z,58.97
2023-01-21T08:55:22.280Z,57.69
2023-01-21T08:56:22.294Z,58.17
2023-01-21T08:57:22.264Z,58.49
2023-01-21T08:58:22.258Z,58.01
2023-01-21T08:59:22.242Z,59.78
2023-01-21T09:00:22.293Z,54.95
2023-01-21T09:01:22.342Z,56.07
2023-01-21T09:02:22.273Z,57.04
2023-01-21T09:03:22.215Z,58.17
2023-01-21T09:04:22.218Z,56.24
2023-01-21T09:05:22.205Z,53.98
2023-01-21T09:06:22.224Z,62.68
2023-01-21T09:07:22.195Z,63.49
2023-01-21T09:08:22.178Z,63.49
2023-01-21T09:09:23.177Z,56.07
2023-01-21T09:10:22.164Z,58.33
2023-01-21T09:11:22.187Z,61.07
2023-01-21T09:12:22.154Z,60.10
2023-01-21T09:13:22.153Z,62.04
2023-01-21T09:14:22.137Z,57.20
2023-01-21T09:15:22.130Z,60.42
2023-01-21T09:16:22.212Z,59.62
2023-01-21T09:17:22.119Z,59.30
2023-01-21T09:18:22.105Z,55.59
2023-01-21T09:19:22.104Z,56.88
2023-01-21T09:20:22.100Z,54.95
2023-01-21T09:21:22.114Z,60.42
2023-01-21T09:22:22.089Z,60.42
2023-01-21T09:23:22.076Z,54.62
2023-01-21T09:24:23.068Z,55.27
2023-01-21T09:25:23.360Z,60.59
2023-01-21T09:26:23.080Z,58.17
2023-01-21T09:27:22.053Z,59.62
2023-01-21T09:28:22.043Z,59.14
2023-01-21T09:29:22.042Z,58.81
2023-01-21T09:30:22.020Z,52.05
2023-01-21T09:31:22.059Z,56.40
2023-01-21T09:32:23.011Z,57.04
2023-01-21T09:33:21.997Z,60.26
2023-01-21T09:34:21.993Z,57.04
2023-01-21T09:35:21.987Z,56.40
2023-01-21T09:36:22.034Z,59.94
2023-01-21T09:37:21.977Z,59.46
2023-01-21T09:38:21.984Z,62.20
2023-01-21T09:39:21.958Z,62.20
2023-01-21T09:40:21.953Z,58.65
2023-01-21T09:41:21.969Z,58.97
2023-01-21T09:42:21.939Z,59.94
2023-01-21T09:43:21.922Z,58.65
2023-01-21T09:44:21.937Z,57.36
2023-01-21T09:45:21.912Z,57.69
2023-01-21T09:46:21.929Z,59.94
2023-01-21T09:47:21.899Z,60.59
2023-01-21T09:48:21.889Z,59.30
2023-01-21T09:49:21.891Z,60.10
2023-01-21T09:50:21.892Z,60.10
2023-01-21T09:51:21.897Z,58.01
2023-01-21T09:52:21.867Z,61.39
2023-01-21T09:53:21.856Z,64.29
2023-01-21T09:54:21.847Z,58.65
2023-01-21T09:55:21.841Z,58.01
2023-01-21T09:56:21.862Z,59.78
2023-01-21T09:57:21.824Z,61.39
2023-01-21T09:58:21.823Z,60.75
2023-01-21T09:59:21.805Z,58.33
2023-01-21T10:00:21.796Z,59.78
2023-01-21T10:01:22.887Z,59.46
2023-01-21T10:02:21.785Z,56.88
2023-01-21T10:03:21.778Z,61.39
2023-01-21T10:04:21.786Z,56.40
2023-01-21T10:05:21.769Z,60.75
2023-01-21T10:06:21.804Z,61.55
2023-01-21T10:07:21.750Z,63.81
2023-01-21T10:08:21.741Z,63.81
2023-01-21T10:09:21.737Z,60.26
2023-01-21T10:10:21.731Z,61.39
2023-01-21T10:11:21.714Z,61.71
2023-01-21T10:12:21.739Z,62.68
2023-01-21T10:13:21.703Z,60.59
2023-01-21T10:14:21.705Z,55.43
2023-01-21T10:15:21.698Z,62.04
2023-01-21T10:16:21.710Z,58.97
2023-01-21T10:17:21.719Z,61.55
2023-01-21T10:18:21.669Z,58.65
2023-01-21T10:19:21.663Z,58.01
2023-01-21T10:20:21.652Z,62.52
2023-01-21T10:21:21.648Z,59.94
2023-01-21T10:22:21.679Z,60.59
2023-01-21T10:23:21.637Z,60.26
2023-01-21T10:24:21.632Z,59.46
2023-01-21T10:25:21.662Z,59.62
2023-01-21T10:26:21.611Z,62.52
2023-01-21T10:27:21.630Z,59.94
2023-01-21T10:28:21.640Z,62.84
2023-01-21T10:29:22.591Z,58.65
2023-01-21T10:30:21.585Z,56.56
2023-01-21T10:31:21.727Z,59.94
2023-01-21T10:32:21.591Z,55.91
2023-01-21T10:33:21.557Z,56.24
2023-01-21T10:34:21.547Z,60.91
2023-01-21T10:35:21.543Z,62.52
2023-01-21T10:36:21.540Z,57.20
2023-01-21T10:37:21.558Z,60.26
2023-01-21T10:38:21.522Z,59.30
2023-01-21T10:39:21.518Z,61.71
2023-01-21T10:40:21.506Z,59.94
2023-01-21T10:41:21.529Z,58.49
2023-01-21T10:42:21.521Z,56.24
2023-01-21T10:43:21.488Z,55.59
2023-01-21T10:44:21.473Z,60.75
2023-01-21T10:45:21.478Z,62.84
2023-01-21T10:46:21.503Z,59.94
2023-01-21T10:47:21.511Z,55.27
2023-01-21T10:48:21.449Z,54.95
2023-01-21T10:49:21.628Z,51.88
2023-01-21T10:50:21.585Z,55.43
2023-01-21T10:51:21.741Z,56.88
2023-01-21T10:52:21.451Z,56.40
2023-01-21T10:53:21.421Z,54.95
2023-01-21T10:54:22.668Z,60.91
2023-01-21T10:55:22.399Z,57.69
2023-01-21T10:56:21.395Z,57.52
2023-01-21T10:57:21.417Z,56.72
2023-01-21T10:58:21.386Z,55.75
2023-01-21T10:59:21.367Z,52.37
2023-01-21T11:00:21.366Z,54.46
2023-01-21T11:01:21.392Z,58.17
2023-01-21T11:02:21.386Z,50.60
2023-01-21T11:03:21.350Z,55.27
2023-01-21T11:04:21.337Z,56.40
2023-01-21T11:05:21.334Z,60.26
2023-01-21T11:06:21.383Z,58.49
2023-01-21T11:07:21.451Z,59.94
2023-01-21T11:08:21.331Z,59.78
2023-01-21T11:09:21.308Z,60.75
2023-01-21T11:10:21.396Z,61.07
2023-01-21T11:11:21.399Z,61.39
2023-01-21T11:12:21.501Z,58.17
2023-01-21T11:13:21.267Z,60.42
2023-01-21T11:14:21.336Z,57.69
2023-01-21T11:15:22.261Z,58.17
2023-01-21T11:16:21.249Z,60.42
2023-01-21T11:17:21.272Z,58.65
2023-01-21T11:18:21.232Z,57.85
2023-01-21T11:19:21.223Z,56.07
2023-01-21T11:20:21.919Z,57.20
2023-01-21T11:21:22.213Z,61.39
2023-01-21T11:22:21.230Z,61.23
2023-01-21T11:23:21.198Z,58.17
2023-01-21T11:24:21.191Z,60.75
2023-01-21T11:25:21.184Z,58.17
2023-01-21T11:26:21.173Z,60.42
2023-01-21T11:27:21.204Z,53.33
2023-01-21T11:28:21.186Z,53.17
2023-01-21T11:29:21.156Z,58.81
2023-01-21T11:30:44.207Z,53.66
2023-01-21T11:31:23.183Z,53.98
2023-01-21T11:32:21.288Z,57.20
2023-01-21T11:33:21.155Z,62.04
2023-01-21T11:34:21.129Z,56.88
2023-01-21T11:35:21.113Z,57.04
2023-01-21T11:36:21.112Z,55.11
2023-01-21T11:37:21.127Z,61.55
2023-01-21T11:38:21.091Z,58.33
2023-01-21T11:39:21.081Z,58.01
2023-01-21T11:40:21.388Z,60.26
2023-01-21T11:41:22.084Z,58.01
2023-01-21T11:42:21.104Z,52.53
2023-01-21T11:43:21.056Z,49.79
2023-01-21T11:44:21.052Z,57.69
2023-01-21T11:45:21.086Z,56.40
2023-01-21T11:46:21.081Z,57.69
2023-01-21T11:47:22.085Z,58.33
2023-01-21T11:48:21.077Z,56.56
2023-01-21T11:49:21.106Z,53.01
2023-01-21T11:50:21.189Z,53.98
2023-01-21T11:51:21.041Z,57.52
2023-01-21T11:52:21.018Z,55.27
2023-01-21T11:53:20.986Z,56.56
2023-01-21T11:54:20.979Z,58.49
2023-01-21T11:55:21.043Z,58.65
2023-01-21T11:56:21.043Z,52.53
2023-01-21T11:57:20.973Z,53.50
2023-01-21T11:58:20.964Z,57.85
2023-01-21T11:59:20.978Z,54.46
2023-01-21T12:00:20.966Z,59.78
2023-01-21T12:01:20.935Z,59.30
2023-01-21T12:02:20.981Z,58.97
2023-01-21T12:03:20.936Z,55.43
2023-01-21T12:04:20.895Z,54.79
2023-01-21T12:05:20.893Z,63.00
2023-01-21T12:06:20.885Z,59.30
2023-01-21T12:07:20.877Z,57.52
2023-01-21T12:08:20.917Z,55.59
2023-01-21T12:09:20.873Z,62.52
2023-01-21T12:10:20.856Z,54.14
2023-01-21T12:11:20.843Z,56.56
2023-01-21T12:12:20.839Z,59.94
2023-01-21T12:13:20.861Z,51.40
2023-01-21T12:14:20.819Z,62.04
2023-01-21T12:15:20.814Z,62.20
2023-01-21T12:16:20.856Z,62.04
2023-01-21T12:17:20.794Z,57.69
2023-01-21T12:18:20.819Z,58.65
2023-01-21T12:19:20.786Z,59.30
2023-01-21T12:20:20.785Z,59.14
2023-01-21T12:21:20.767Z,55.91
2023-01-21T12:22:20.765Z,57.52
2023-01-21T12:23:20.777Z,57.85
2023-01-21T12:24:20.742Z,53.98
2023-01-21T12:25:20.740Z,51.72
2023-01-21T12:26:20.734Z,53.82
2023-01-21T12:27:20.722Z,58.17
2023-01-21T12:28:20.743Z,53.17
2023-01-21T12:29:20.832Z,53.82
2023-01-21T12:30:20.704Z,57.69
2023-01-21T12:31:20.798Z,56.88
2023-01-21T12:32:23.582Z,59.94
2023-01-21T12:33:20.702Z,55.75
2023-01-21T12:34:20.672Z,52.85
2023-01-21T12:35:20.661Z,58.65
2023-01-21T12:36:20.660Z,61.71
2023-01-21T12:37:20.655Z,58.97
2023-01-21T12:38:20.663Z,57.36
2023-01-21T12:39:20.634Z,56.07
2023-01-21T12:40:20.631Z,51.08
2023-01-21T12:41:20.623Z,53.98
2023-01-21T12:42:20.643Z,54.62
2023-01-21T12:43:20.631Z,53.33
2023-01-21T12:44:20.599Z,55.75
2023-01-21T12:45:20.597Z,59.46
2023-01-21T12:46:20.692Z,58.17
2023-01-21T12:47:20.583Z,52.53
2023-01-21T12:48:20.600Z,55.59
2023-01-21T12:49:20.565Z,53.33
2023-01-21T12:50:20.558Z,58.97
2023-01-21T12:51:20.605Z,55.43
2023-01-21T12:52:20.544Z,56.72